Overton's Hourly Summary for Saturday, April 15, 2017
Hour Temp
(f)
RH
(%)
Solar Rad.
(MJ/m2)
Rainfall
(in)
Wind
(mph)
4/15/2017 12:00 AM 66 78 0 0 0.97
4/15/2017 1:00 AM 65 83 0 0 0.47
4/15/2017 2:00 AM 64 86 0 0 0.62
4/15/2017 3:00 AM 62 90 0 0 0.08
4/15/2017 4:00 AM 60 96 0 0 0
4/15/2017 5:00 AM 58 97 0 0 0
4/15/2017 6:00 AM 58 97 0 0 0
4/15/2017 7:00 AM 58 98 0.01 0 0
4/15/2017 8:00 AM 60 92 0.27 0 0.11
4/15/2017 9:00 AM 67 89 0.72 0 2
4/15/2017 10:00 AM 69 82 1.17 0 3.27
4/15/2017 11:00 AM 72 69 2.08 0 4.53
4/15/2017 12:00 PM 75 68 2.13 0 5.97
4/15/2017 1:00 PM 78 63 2.68 0 5.71
4/15/2017 2:00 PM 79 59 2.73 0 6.19
4/15/2017 3:00 PM 80 52 2.42 0 5.97
4/15/2017 4:00 PM 81 58 2.39 0 7.16
4/15/2017 5:00 PM 81 57 2.07 0 7.42
4/15/2017 6:00 PM 80 57 1.3 0 3.81
4/15/2017 7:00 PM 79 58 0.73 0 2.56
4/15/2017 8:00 PM 74 80 0.09 0 0.02
4/15/2017 9:00 PM 67 88 0 0 0
4/15/2017 10:00 PM 66 87 0 0 0.04
4/15/2017 11:00 PM 68 84 0 0 0.46
Data Summary 69 77 20.79 0.00 2.39